createdAt,value
2022-12-17T00:00:51.591Z,6.07
2022-12-17T00:01:51.528Z,6.13
2022-12-17T00:02:51.586Z,6.18
2022-12-17T00:03:51.610Z,6.24
2022-12-17T00:04:51.549Z,6.44
2022-12-17T00:05:51.451Z,6.42
2022-12-17T00:06:51.440Z,6.50
2022-12-17T00:07:54.422Z,6.41
2022-12-17T00:08:54.420Z,6.76
2022-12-17T00:09:51.400Z,6.99
2022-12-17T00:10:51.415Z,7.28
2022-12-17T00:11:51.371Z,7.39
2022-12-17T00:12:51.360Z,7.80
2022-12-17T00:13:51.350Z,8.06
2022-12-17T00:14:51.388Z,8.39
2022-12-17T00:15:51.368Z,8.72
2022-12-17T00:16:51.310Z,8.92
2022-12-17T00:17:51.299Z,9.25
2022-12-17T00:18:51.288Z,9.26
2022-12-17T00:19:51.270Z,9.24
2022-12-17T00:20:51.301Z,9.21
2022-12-17T00:21:51.253Z,8.79
2022-12-17T00:22:51.232Z,8.89
2022-12-17T00:23:51.221Z,8.89
2022-12-17T00:24:51.202Z,8.79
2022-12-17T00:25:51.199Z,9.10
2022-12-17T00:26:51.202Z,9.52
2022-12-17T00:27:54.165Z,9.01
2022-12-17T00:28:54.171Z,9.02
2022-12-17T00:29:51.141Z,8.50
2022-12-17T00:30:51.126Z,8.65
2022-12-17T00:31:51.250Z,8.76
2022-12-17T00:32:51.108Z,8.86
2022-12-17T00:33:51.092Z,9.04
2022-12-17T00:34:51.072Z,9.10
2022-12-17T00:35:51.063Z,9.13
2022-12-17T00:36:51.043Z,8.94
2022-12-17T00:37:51.078Z,9.24
2022-12-17T00:38:51.024Z,9.36
2022-12-17T00:39:53.600Z,9.52
2022-12-17T00:40:52.071Z,9.52
2022-12-17T00:41:50.985Z,9.39
2022-12-17T00:42:50.977Z,9.45
2022-12-17T00:43:51.019Z,9.26
2022-12-17T00:44:50.944Z,9.29
2022-12-17T00:45:50.934Z,9.36
2022-12-17T00:46:50.952Z,9.58
2022-12-17T00:47:53.904Z,9.63
2022-12-17T00:48:53.943Z,10.09
2022-12-17T00:49:50.883Z,10.02
2022-12-17T00:50:50.893Z,9.73
2022-12-17T00:51:50.853Z,9.44
2022-12-17T00:52:50.845Z,9.07
2022-12-17T00:53:50.826Z,9.13
2022-12-17T00:54:50.827Z,8.90
2022-12-17T00:55:50.824Z,8.74
2022-12-17T00:56:50.852Z,8.54
2022-12-17T00:57:50.839Z,8.62
2022-12-17T00:58:50.764Z,8.80
2022-12-17T00:59:50.752Z,8.71
2022-12-17T01:00:50.795Z,9.03
2022-12-17T01:01:50.962Z,9.24
2022-12-17T01:02:50.906Z,9.68
2022-12-17T01:03:50.696Z,9.87
2022-12-17T01:04:50.686Z,9.76
2022-12-17T01:05:50.668Z,9.80
2022-12-17T01:06:50.655Z,9.97
2022-12-17T01:07:53.679Z,10.27
2022-12-17T01:08:53.678Z,10.71
2022-12-17T01:09:50.625Z,10.80
2022-12-17T01:10:50.615Z,10.99
2022-12-17T01:11:50.613Z,10.90
2022-12-17T01:12:50.648Z,11.17
2022-12-17T01:13:50.574Z,11.45
2022-12-17T01:14:50.556Z,11.71
2022-12-17T01:15:50.621Z,11.97
2022-12-17T01:16:50.573Z,12.20
2022-12-17T01:17:50.506Z,12.31
2022-12-17T01:18:50.545Z,12.54
2022-12-17T01:19:50.480Z,12.46
2022-12-17T01:20:50.480Z,12.66
2022-12-17T01:21:50.457Z,12.66
2022-12-17T01:22:50.449Z,12.68
2022-12-17T01:23:50.440Z,12.57
2022-12-17T01:24:50.448Z,12.58
2022-12-17T01:25:50.398Z,12.99
2022-12-17T01:26:50.397Z,12.70
2022-12-17T01:27:53.379Z,13.19
2022-12-17T01:28:53.378Z,13.25
2022-12-17T01:29:50.417Z,13.40
2022-12-17T01:30:50.338Z,12.98
2022-12-17T01:31:50.372Z,12.94
2022-12-17T01:32:50.318Z,12.93
2022-12-17T01:33:50.298Z,13.04
2022-12-17T01:34:50.292Z,13.24
2022-12-17T01:35:50.301Z,13.60
2022-12-17T01:36:50.258Z,13.73
2022-12-17T01:37:50.271Z,13.79
2022-12-17T01:38:50.237Z,14.07
2022-12-17T01:39:50.354Z,14.09
2022-12-17T01:40:50.209Z,14.19
2022-12-17T01:41:50.190Z,14.03
2022-12-17T01:42:50.210Z,14.30
2022-12-17T01:43:50.159Z,14.61
2022-12-17T01:44:50.150Z,15.04
2022-12-17T01:45:50.226Z,15.29
2022-12-17T01:46:50.130Z,15.38
2022-12-17T01:47:53.129Z,15.73
2022-12-17T01:48:53.119Z,16.29
2022-12-17T01:49:50.109Z,16.96
2022-12-17T01:50:50.076Z,16.32
2022-12-17T01:51:50.071Z,16.56
2022-12-17T01:52:50.048Z,16.81
2022-12-17T01:53:50.032Z,16.23
2022-12-17T01:54:50.080Z,16.22
2022-12-17T01:55:50.009Z,15.99
2022-12-17T01:56:50.001Z,16.54
2022-12-17T01:57:49.989Z,16.29
2022-12-17T01:58:49.970Z,16.41
2022-12-17T01:59:49.960Z,16.61
2022-12-17T02:00:50.050Z,16.98
2022-12-17T02:01:50.179Z,16.42
2022-12-17T02:02:49.998Z,16.98
2022-12-17T02:03:49.901Z,17.41
2022-12-17T02:04:49.921Z,17.93
2022-12-17T02:05:49.925Z,17.66
2022-12-17T02:06:49.871Z,17.25
2022-12-17T02:07:52.945Z,16.10
2022-12-17T02:08:52.852Z,15.57
2022-12-17T02:09:49.821Z,15.51
2022-12-17T02:10:49.811Z,15.38
2022-12-17T02:11:49.835Z,15.50
2022-12-17T02:12:49.789Z,15.49
2022-12-17T02:13:49.773Z,15.52
2022-12-17T02:14:49.765Z,15.51
2022-12-17T02:15:49.741Z,15.83
2022-12-17T02:16:49.840Z,16.23
2022-12-17T02:17:49.758Z,16.92
2022-12-17T02:18:49.714Z,17.53
2022-12-17T02:19:49.696Z,18.06
2022-12-17T02:20:49.684Z,18.55
2022-12-17T02:21:49.784Z,19.01
2022-12-17T02:22:49.682Z,19.86
2022-12-17T02:23:49.664Z,21.49
2022-12-17T02:24:49.696Z,22.17
2022-12-17T02:25:49.612Z,21.00
2022-12-17T02:26:49.619Z,20.89
2022-12-17T02:27:52.597Z,20.33
2022-12-17T02:28:52.583Z,19.99
2022-12-17T02:29:49.567Z,20.76
2022-12-17T02:30:49.584Z,21.12
2022-12-17T02:31:49.586Z,20.75
2022-12-17T02:32:49.525Z,20.95
2022-12-17T02:33:49.508Z,21.29
2022-12-17T02:34:49.534Z,20.79
2022-12-17T02:35:49.502Z,20.36
2022-12-17T02:36:49.492Z,20.75
2022-12-17T02:37:49.463Z,21.22
2022-12-17T02:38:49.453Z,22.38
2022-12-17T02:39:49.432Z,24.38
2022-12-17T02:40:49.414Z,24.31
2022-12-17T02:41:49.432Z,24.11
2022-12-17T02:42:49.423Z,26.13
2022-12-17T02:43:49.387Z,25.14
2022-12-17T02:44:49.366Z,25.43
2022-12-17T02:45:49.423Z,25.74
2022-12-17T02:46:49.335Z,24.91
2022-12-17T02:47:52.356Z,24.62
2022-12-17T02:48:52.324Z,24.95
2022-12-17T02:49:49.305Z,25.04
2022-12-17T02:50:49.313Z,25.12
2022-12-17T02:51:49.274Z,25.49
2022-12-17T02:52:49.265Z,26.08
2022-12-17T02:53:49.319Z,26.49
2022-12-17T02:54:49.235Z,26.89
2022-12-17T02:55:49.227Z,28.23
2022-12-17T02:56:49.206Z,28.64
2022-12-17T02:57:53.603Z,28.89
2022-12-17T02:58:49.185Z,28.93
2022-12-17T02:59:49.196Z,28.50
2022-12-17T03:00:49.194Z,28.84
2022-12-17T03:01:49.304Z,28.25
2022-12-17T03:02:49.279Z,28.68
2022-12-17T03:03:50.593Z,28.84
2022-12-17T03:04:49.136Z,29.10
2022-12-17T03:05:49.095Z,29.28
2022-12-17T03:06:49.085Z,29.27
2022-12-17T03:07:52.066Z,29.76
2022-12-17T03:08:52.081Z,30.33
2022-12-17T03:09:49.107Z,29.70
2022-12-17T03:10:49.044Z,29.44
2022-12-17T03:11:49.030Z,29.64
2022-12-17T03:12:49.007Z,29.69
2022-12-17T03:13:48.998Z,30.42
2022-12-17T03:14:48.995Z,30.97
2022-12-17T03:15:48.997Z,31.37
2022-12-17T03:16:49.025Z,31.97
2022-12-17T03:17:48.949Z,32.44
2022-12-17T03:18:48.959Z,32.54
2022-12-17T03:19:48.920Z,32.87
2022-12-17T03:20:48.910Z,33.13
2022-12-17T03:21:48.900Z,33.74
2022-12-17T03:22:48.877Z,33.15
2022-12-17T03:23:48.919Z,32.69
2022-12-17T03:24:48.859Z,32.00
2022-12-17T03:25:48.846Z,31.90
2022-12-17T03:26:48.831Z,32.37
2022-12-17T03:27:59.485Z,32.15
2022-12-17T03:28:51.884Z,32.43
2022-12-17T03:29:48.886Z,31.92
2022-12-17T03:30:49.404Z,31.89
2022-12-17T03:31:48.945Z,31.64
2022-12-17T03:32:48.916Z,31.44
2022-12-17T03:33:48.815Z,31.15
2022-12-17T03:34:48.851Z,30.74
2022-12-17T03:35:48.808Z,32.15
2022-12-17T03:36:48.835Z,31.93
2022-12-17T03:37:48.726Z,31.48
2022-12-17T03:38:48.707Z,29.81
2022-12-17T03:39:48.743Z,29.20
2022-12-17T03:40:48.677Z,29.08
2022-12-17T03:41:48.687Z,29.58
2022-12-17T03:42:48.675Z,29.83
2022-12-17T03:43:48.658Z,30.27
2022-12-17T03:44:48.667Z,30.66
2022-12-17T03:45:48.719Z,31.21
2022-12-17T03:46:48.651Z,31.12
2022-12-17T03:47:51.618Z,31.63
2022-12-17T03:48:51.577Z,31.58
2022-12-17T03:49:48.558Z,29.60
2022-12-17T03:50:48.702Z,29.03
2022-12-17T03:51:48.539Z,30.06
2022-12-17T03:52:48.649Z,30.56
2022-12-17T03:53:48.551Z,31.32
2022-12-17T03:54:48.527Z,32.02
2022-12-17T03:55:48.490Z,33.64
2022-12-17T03:56:48.477Z,34.88
2022-12-17T03:57:48.511Z,34.28
2022-12-17T03:58:48.489Z,35.10
2022-12-17T03:59:48.437Z,35.72
2022-12-17T04:00:48.418Z,34.90
2022-12-17T04:01:48.515Z,35.72
2022-12-17T04:02:48.517Z,34.87
2022-12-17T04:03:48.637Z,34.85
2022-12-17T04:04:48.422Z,35.63
2022-12-17T04:05:48.392Z,35.76
2022-12-17T04:06:48.339Z,34.62
2022-12-17T04:07:51.342Z,35.27
2022-12-17T04:08:51.371Z,36.34
2022-12-17T04:09:48.309Z,36.29
2022-12-17T04:10:48.437Z,36.25
2022-12-17T04:11:48.277Z,35.87
2022-12-17T04:12:48.279Z,37.40
2022-12-17T04:13:48.530Z,36.97
2022-12-17T04:14:48.240Z,35.69
2022-12-17T04:15:48.323Z,35.32
2022-12-17T04:16:48.240Z,35.30
2022-12-17T04:17:48.320Z,36.15
2022-12-17T04:18:48.239Z,35.55
2022-12-17T04:19:48.247Z,35.80
2022-12-17T04:20:48.168Z,35.79
2022-12-17T04:21:48.259Z,35.63
2022-12-17T04:22:48.161Z,35.33
2022-12-17T04:23:48.129Z,36.30
2022-12-17T04:24:48.203Z,36.01
2022-12-17T04:25:48.177Z,36.11
2022-12-17T04:26:48.201Z,36.07
2022-12-17T04:27:51.180Z,36.90
2022-12-17T04:28:51.096Z,38.92
2022-12-17T04:29:48.056Z,37.65
2022-12-17T04:30:48.270Z,37.19
2022-12-17T04:31:48.150Z,37.78
2022-12-17T04:32:48.080Z,37.58
2022-12-17T04:33:48.090Z,37.35
2022-12-17T04:34:48.000Z,38.73
2022-12-17T04:35:47.973Z,39.05
2022-12-17T04:36:47.990Z,40.67
2022-12-17T04:37:47.951Z,41.02
2022-12-17T04:38:47.931Z,40.90
2022-12-17T04:39:48.011Z,40.93
2022-12-17T04:40:47.961Z,40.95
2022-12-17T04:41:47.949Z,40.56
2022-12-17T04:42:47.892Z,39.99
2022-12-17T04:43:47.881Z,39.52
2022-12-17T04:44:47.858Z,39.87
2022-12-17T04:45:47.906Z,39.38
2022-12-17T04:46:47.888Z,39.43
2022-12-17T04:47:51.025Z,38.93
2022-12-17T04:48:50.860Z,39.59
2022-12-17T04:49:47.801Z,38.42
2022-12-17T04:50:47.819Z,37.66
2022-12-17T04:51:47.779Z,36.83
2022-12-17T04:52:47.851Z,36.64
2022-12-17T04:53:47.771Z,36.74
2022-12-17T04:54:47.741Z,38.05
2022-12-17T04:55:47.741Z,37.66
2022-12-17T04:56:47.721Z,36.44
2022-12-17T04:57:47.702Z,36.81
2022-12-17T04:58:47.713Z,37.85
2022-12-17T04:59:47.702Z,37.19
2022-12-17T05:00:47.663Z,37.48
2022-12-17T05:01:47.741Z,36.24
2022-12-17T05:02:47.818Z,35.40
2022-12-17T05:03:47.777Z,36.05
2022-12-17T05:04:47.727Z,34.49
2022-12-17T05:05:47.695Z,33.77
2022-12-17T05:06:47.599Z,32.91
2022-12-17T05:07:50.635Z,32.24
2022-12-17T05:08:50.663Z,32.78
2022-12-17T05:09:47.620Z,31.92
2022-12-17T05:10:47.563Z,31.66
2022-12-17T05:11:47.642Z,31.18
2022-12-17T05:12:47.534Z,31.06
2022-12-17T05:13:47.513Z,30.75
2022-12-17T05:14:47.659Z,30.97
2022-12-17T05:15:52.941Z,30.40
2022-12-17T05:16:48.632Z,30.64
2022-12-17T05:17:47.563Z,30.21
2022-12-17T05:18:47.568Z,29.39
2022-12-17T05:19:47.523Z,28.43
2022-12-17T05:20:47.567Z,29.31
2022-12-17T05:21:47.435Z,28.39
2022-12-17T05:22:47.501Z,27.55
2022-12-17T05:23:47.424Z,26.84
2022-12-17T05:24:47.391Z,26.14
2022-12-17T05:25:47.345Z,25.66
2022-12-17T05:26:47.343Z,25.42
2022-12-17T05:27:50.343Z,25.16
2022-12-17T05:28:50.338Z,25.43
2022-12-17T05:29:47.318Z,25.02
2022-12-17T05:30:47.351Z,24.72
2022-12-17T05:31:47.311Z,24.10
2022-12-17T05:32:47.266Z,22.81
2022-12-17T05:33:47.254Z,22.78
2022-12-17T05:34:47.233Z,22.61
2022-12-17T05:35:47.225Z,22.13
2022-12-17T05:36:47.214Z,21.45
2022-12-17T05:37:47.264Z,21.28
2022-12-17T05:38:47.202Z,21.00
2022-12-17T05:39:47.175Z,20.45
2022-12-17T05:40:47.165Z,21.88
2022-12-17T05:41:47.146Z,20.80
2022-12-17T05:42:47.134Z,20.48
2022-12-17T05:43:47.155Z,19.96
2022-12-17T05:44:47.117Z,19.46
2022-12-17T05:45:47.087Z,19.92
2022-12-17T05:46:47.198Z,20.80
2022-12-17T05:47:50.103Z,20.10
2022-12-17T05:48:50.107Z,20.62
2022-12-17T05:49:47.050Z,20.41
2022-12-17T05:50:47.036Z,20.19
2022-12-17T05:51:47.032Z,19.96
2022-12-17T05:52:47.011Z,19.66
2022-12-17T05:53:47.017Z,20.02
2022-12-17T05:54:46.988Z,19.67
2022-12-17T05:55:46.966Z,19.46
2022-12-17T05:56:46.956Z,20.02
2022-12-17T05:57:50.467Z,19.81
2022-12-17T05:58:47.968Z,19.70
2022-12-17T05:59:46.937Z,19.36
2022-12-17T06:00:46.909Z,19.40
2022-12-17T06:01:46.985Z,19.69
2022-12-17T06:02:47.036Z,20.55
2022-12-17T06:03:47.035Z,20.12
2022-12-17T06:04:46.859Z,20.12
2022-12-17T06:05:46.839Z,20.43
2022-12-17T06:06:46.838Z,19.88
2022-12-17T06:07:49.808Z,20.66
2022-12-17T06:08:49.857Z,21.48
2022-12-17T06:09:46.817Z,21.87
2022-12-17T06:10:46.785Z,22.55
2022-12-17T06:11:46.780Z,22.73
2022-12-17T06:12:46.770Z,22.50
2022-12-17T06:13:46.736Z,21.87
2022-12-17T06:14:46.767Z,22.28
2022-12-17T06:15:46.772Z,22.48
2022-12-17T06:16:46.746Z,22.54
2022-12-17T06:17:46.698Z,22.22
2022-12-17T06:18:46.698Z,22.35
2022-12-17T06:19:46.680Z,22.38
2022-12-17T06:20:46.658Z,22.68
2022-12-17T06:21:46.671Z,23.08
2022-12-17T06:22:46.647Z,22.68
2022-12-17T06:23:46.628Z,22.53
2022-12-17T06:24:46.620Z,23.04
2022-12-17T06:25:46.618Z,24.81
2022-12-17T06:26:46.588Z,24.57
2022-12-17T06:27:49.568Z,25.14
2022-12-17T06:28:49.602Z,25.87
2022-12-17T06:29:46.567Z,25.07
2022-12-17T06:30:46.559Z,27.65
2022-12-17T06:31:46.619Z,27.17
2022-12-17T06:32:46.498Z,28.02
2022-12-17T06:33:46.491Z,29.97
2022-12-17T06:34:46.500Z,28.71
2022-12-17T06:35:46.468Z,27.90
2022-12-17T06:36:46.489Z,29.70
2022-12-17T06:37:46.446Z,30.15
2022-12-17T06:38:46.438Z,30.76
2022-12-17T06:39:46.431Z,29.78
2022-12-17T06:40:46.412Z,29.04
2022-12-17T06:41:46.389Z,30.79
2022-12-17T06:42:46.431Z,30.13
2022-12-17T06:43:46.368Z,28.91
2022-12-17T06:44:46.359Z,29.02
2022-12-17T06:45:46.349Z,29.54
2022-12-17T06:46:46.449Z,29.51
2022-12-17T06:47:49.359Z,31.18
2022-12-17T06:48:49.319Z,31.52
2022-12-17T06:49:46.307Z,29.92
2022-12-17T06:50:46.287Z,29.64
2022-12-17T06:51:46.260Z,29.90
2022-12-17T06:52:46.267Z,30.35
2022-12-17T06:53:46.271Z,32.03
2022-12-17T06:54:46.279Z,31.33
2022-12-17T06:55:46.222Z,31.82
2022-12-17T06:56:46.221Z,32.34
2022-12-17T06:57:50.187Z,32.54
2022-12-17T06:58:46.179Z,33.14
2022-12-17T06:59:46.240Z,31.83
2022-12-17T07:00:46.209Z,31.23
2022-12-17T07:01:46.311Z,29.86
2022-12-17T07:02:46.266Z,30.70
2022-12-17T07:03:46.129Z,31.14
2022-12-17T07:04:46.120Z,32.84
2022-12-17T07:05:46.149Z,32.05
2022-12-17T07:06:46.086Z,32.34
2022-12-17T07:07:49.061Z,35.26
2022-12-17T07:08:49.087Z,35.18
2022-12-17T07:09:46.050Z,33.96
2022-12-17T07:10:46.041Z,32.83
2022-12-17T07:11:46.140Z,32.15
2022-12-17T07:12:46.001Z,31.99
2022-12-17T07:13:45.994Z,31.84
2022-12-17T07:14:45.971Z,32.09
2022-12-17T07:15:45.971Z,32.95
2022-12-17T07:16:46.069Z,33.71
2022-12-17T07:17:45.941Z,33.95
2022-12-17T07:18:45.967Z,35.16
2022-12-17T07:19:45.921Z,35.18
2022-12-17T07:20:45.901Z,33.87
2022-12-17T07:21:45.891Z,35.75
2022-12-17T07:22:45.941Z,37.85
2022-12-17T07:23:45.863Z,39.12
2022-12-17T07:24:45.878Z,39.25
2022-12-17T07:25:46.451Z,38.42
2022-12-17T07:26:45.850Z,39.33
2022-12-17T07:27:48.851Z,39.42
2022-12-17T07:28:48.841Z,39.89
2022-12-17T07:29:45.809Z,39.32
2022-12-17T07:30:45.798Z,38.30
2022-12-17T07:31:45.800Z,40.15
2022-12-17T07:32:45.771Z,39.78
2022-12-17T07:33:45.803Z,38.64
2022-12-17T07:34:45.758Z,39.43
2022-12-17T07:35:45.705Z,39.65
2022-12-17T07:36:45.708Z,37.90
2022-12-17T07:37:45.700Z,37.23
2022-12-17T07:38:45.693Z,37.66
2022-12-17T07:39:45.693Z,37.98
2022-12-17T07:40:45.664Z,36.95
2022-12-17T07:41:45.642Z,35.73
2022-12-17T07:42:45.641Z,35.14
2022-12-17T07:43:49.658Z,34.97
2022-12-17T07:44:46.624Z,34.23
2022-12-17T07:45:45.647Z,33.91
2022-12-17T07:46:45.583Z,34.18
2022-12-17T07:47:48.563Z,34.82
2022-12-17T07:48:48.582Z,34.13
2022-12-17T07:49:45.594Z,32.90
2022-12-17T07:50:45.535Z,32.77
2022-12-17T07:51:45.524Z,32.51
2022-12-17T07:52:45.496Z,32.97
2022-12-17T07:53:45.485Z,32.38
2022-12-17T07:54:45.475Z,30.49
2022-12-17T07:55:45.496Z,29.77
2022-12-17T07:56:45.484Z,31.28
2022-12-17T07:57:45.433Z,30.91
2022-12-17T07:58:45.433Z,29.92
2022-12-17T07:59:45.425Z,28.39
2022-12-17T08:00:49.282Z,28.40
2022-12-17T08:01:45.587Z,26.98
2022-12-17T08:02:45.454Z,25.49
2022-12-17T08:03:45.412Z,24.95
2022-12-17T08:04:45.350Z,24.50
2022-12-17T08:05:45.345Z,24.97
2022-12-17T08:06:45.324Z,23.98
2022-12-17T08:07:48.334Z,23.60
2022-12-17T08:08:48.328Z,24.29
2022-12-17T08:09:45.308Z,23.36
2022-12-17T08:10:45.274Z,22.51
2022-12-17T08:11:45.316Z,22.01
2022-12-17T08:12:45.252Z,21.64
2022-12-17T08:13:45.236Z,22.35
2022-12-17T08:14:45.233Z,22.11
2022-12-17T08:15:45.214Z,21.19
2022-12-17T08:16:45.280Z,20.44
2022-12-17T08:17:45.234Z,19.56
2022-12-17T08:18:45.189Z,19.02
2022-12-17T08:19:45.156Z,18.52
2022-12-17T08:20:45.156Z,18.23
2022-12-17T08:21:45.147Z,18.40
2022-12-17T08:22:45.124Z,18.61
2022-12-17T08:23:45.139Z,18.47
2022-12-17T08:24:45.107Z,18.14
2022-12-17T08:25:45.123Z,18.46
2022-12-17T08:26:48.168Z,18.46
2022-12-17T08:27:48.057Z,17.63
2022-12-17T08:28:50.776Z,17.84
2022-12-17T08:29:45.027Z,17.50
2022-12-17T08:30:45.101Z,18.40
2022-12-17T08:31:45.037Z,18.97
2022-12-17T08:32:45.015Z,19.15
2022-12-17T08:33:44.987Z,17.92
2022-12-17T08:34:44.980Z,17.29
2022-12-17T08:35:44.950Z,16.85
2022-12-17T08:36:44.978Z,17.62
2022-12-17T08:37:45.007Z,17.06
2022-12-17T08:38:44.936Z,17.16
2022-12-17T08:39:44.898Z,17.60
2022-12-17T08:40:44.918Z,16.99
2022-12-17T08:41:48.491Z,19.42
2022-12-17T08:42:45.907Z,18.24
2022-12-17T08:43:44.867Z,17.47
2022-12-17T08:44:44.847Z,18.21
2022-12-17T08:45:44.876Z,17.63
2022-12-17T08:46:44.828Z,16.79
2022-12-17T08:47:47.828Z,16.18
2022-12-17T08:48:47.821Z,16.27
2022-12-17T08:49:44.857Z,16.82
2022-12-17T08:50:44.779Z,16.34
2022-12-17T08:51:44.759Z,17.48
2022-12-17T08:52:44.759Z,16.50
2022-12-17T08:53:44.739Z,16.34
2022-12-17T08:54:44.719Z,16.28
2022-12-17T08:55:44.749Z,15.14
2022-12-17T08:56:44.727Z,15.01
2022-12-17T08:57:44.688Z,14.79
2022-12-17T08:58:44.678Z,14.55
2022-12-17T08:59:44.659Z,14.00
2022-12-17T09:00:44.651Z,13.25
2022-12-17T09:01:44.845Z,14.11
2022-12-17T09:02:44.803Z,13.68
2022-12-17T09:03:44.788Z,12.85
2022-12-17T09:04:44.593Z,12.85
2022-12-17T09:05:44.589Z,12.56
2022-12-17T09:06:44.570Z,13.02
2022-12-17T09:07:47.589Z,12.66
2022-12-17T09:08:47.559Z,12.56
2022-12-17T09:09:44.539Z,12.38
2022-12-17T09:10:44.519Z,11.55
2022-12-17T09:11:44.527Z,12.33
2022-12-17T09:12:44.540Z,13.24
2022-12-17T09:13:44.480Z,12.88
2022-12-17T09:14:44.509Z,13.54
2022-12-17T09:15:44.451Z,13.67
2022-12-17T09:16:44.490Z,13.17
2022-12-17T09:17:44.421Z,12.79
2022-12-17T09:18:44.460Z,12.59
2022-12-17T09:19:44.408Z,12.24
2022-12-17T09:20:44.400Z,11.82
2022-12-17T09:21:44.373Z,11.74
2022-12-17T09:22:44.391Z,11.30
2022-12-17T09:23:44.433Z,11.68
2022-12-17T09:24:44.403Z,11.31
2022-12-17T09:25:44.348Z,10.98
2022-12-17T09:26:44.343Z,11.25
2022-12-17T09:27:47.344Z,10.92
2022-12-17T09:28:47.387Z,11.00
2022-12-17T09:29:44.382Z,10.78
2022-12-17T09:30:44.412Z,10.75
2022-12-17T09:31:44.310Z,11.11
2022-12-17T09:32:44.301Z,11.48
2022-12-17T09:33:44.308Z,11.51
2022-12-17T09:34:44.281Z,11.42
2022-12-17T09:35:44.242Z,11.37
2022-12-17T09:36:49.523Z,11.02
2022-12-17T09:37:45.350Z,11.28
2022-12-17T09:38:44.204Z,11.81
2022-12-17T09:39:44.250Z,11.41
2022-12-17T09:40:44.216Z,10.83
2022-12-17T09:41:44.178Z,10.66
2022-12-17T09:42:49.687Z,11.23
2022-12-17T09:43:45.100Z,11.41
2022-12-17T09:44:44.142Z,10.84
2022-12-17T09:45:44.157Z,10.76
2022-12-17T09:46:44.159Z,10.61
2022-12-17T09:47:47.114Z,10.02
2022-12-17T09:48:47.096Z,9.90
2022-12-17T09:49:44.021Z,9.50
2022-12-17T09:50:44.024Z,9.79
2022-12-17T09:51:43.995Z,9.92
2022-12-17T09:52:44.043Z,9.33
2022-12-17T09:53:43.982Z,8.51
2022-12-17T09:54:43.974Z,8.44
2022-12-17T09:55:43.974Z,7.96
2022-12-17T09:56:44.007Z,7.54
2022-12-17T09:57:43.992Z,7.19
2022-12-17T09:58:43.936Z,6.61
2022-12-17T09:59:44.064Z,6.33
2022-12-17T10:00:43.948Z,5.90
2022-12-17T10:01:43.981Z,6.13
2022-12-17T10:02:44.126Z,5.88
2022-12-17T10:03:43.993Z,6.33
2022-12-17T10:04:43.886Z,6.03
2022-12-17T10:05:43.806Z,6.39
2022-12-17T10:06:43.816Z,6.62
2022-12-17T10:07:46.813Z,6.70
2022-12-17T10:08:47.051Z,7.12
2022-12-17T10:09:43.817Z,7.22
2022-12-17T10:10:43.795Z,6.91
2022-12-17T10:11:43.887Z,7.03
2022-12-17T10:12:43.796Z,7.35
2022-12-17T10:13:43.736Z,7.53
2022-12-17T10:14:43.826Z,8.31
2022-12-17T10:15:43.791Z,8.57
2022-12-17T10:16:43.757Z,9.66
2022-12-17T10:17:43.750Z,9.51
2022-12-17T10:18:43.698Z,9.83
2022-12-17T10:19:43.697Z,9.88
2022-12-17T10:20:43.799Z,10.20
2022-12-17T10:21:43.661Z,10.18
2022-12-17T10:22:43.631Z,10.16
2022-12-17T10:23:43.612Z,9.97
2022-12-17T10:24:43.623Z,10.51
2022-12-17T10:25:43.649Z,10.85
2022-12-17T10:26:43.725Z,10.36
2022-12-17T10:27:46.580Z,9.91
2022-12-17T10:28:46.548Z,9.80
2022-12-17T10:29:47.850Z,9.33
2022-12-17T10:30:44.640Z,8.29
2022-12-17T10:31:43.527Z,7.59
2022-12-17T10:32:43.479Z,7.31
2022-12-17T10:33:43.467Z,6.46
2022-12-17T10:34:43.494Z,6.04
2022-12-17T10:35:43.538Z,5.77
2022-12-17T10:36:43.605Z,5.38
2022-12-17T10:37:43.702Z,4.99
2022-12-17T10:38:43.630Z,5.33
2022-12-17T10:39:43.557Z,5.00
2022-12-17T10:40:43.435Z,4.77
2022-12-17T10:41:43.366Z,5.36
2022-12-17T10:42:43.621Z,5.11
2022-12-17T10:43:44.492Z,4.84
2022-12-17T10:44:43.396Z,4.60
2022-12-17T10:45:43.414Z,3.94
2022-12-17T10:46:43.468Z,4.20
2022-12-17T10:47:46.557Z,4.45
2022-12-17T10:48:46.566Z,4.65
2022-12-17T10:49:43.366Z,3.98
2022-12-17T10:50:43.309Z,3.27
2022-12-17T10:51:43.383Z,2.79
2022-12-17T10:52:43.638Z,3.75
2022-12-17T10:53:43.329Z,3.68
2022-12-17T10:54:48.739Z,3.36
2022-12-17T10:55:44.530Z,3.27
2022-12-17T10:56:43.178Z,2.54
2022-12-17T10:57:43.183Z,2.20
2022-12-17T10:58:43.166Z,2.45
2022-12-17T10:59:43.283Z,2.69
2022-12-17T11:00:49.362Z,2.49
2022-12-17T11:01:44.286Z,2.21
2022-12-17T11:02:43.380Z,2.05
2022-12-17T11:03:43.214Z,1.56
2022-12-17T11:04:43.252Z,1.41
2022-12-17T11:05:43.156Z,1.21
2022-12-17T11:06:43.213Z,0.69
2022-12-17T11:07:46.094Z,0.34
2022-12-17T11:08:46.207Z,0.42
2022-12-17T11:09:43.133Z,0.62
2022-12-17T11:10:43.022Z,1.25
2022-12-17T11:11:43.033Z,1.40
2022-12-17T11:12:43.175Z,1.42
2022-12-17T11:13:43.033Z,0.87
2022-12-17T11:14:43.037Z,0.83
2022-12-17T11:15:43.111Z,0.72
2022-12-17T11:16:42.967Z,0.70
2022-12-17T11:17:42.926Z,0.57
2022-12-17T11:18:42.924Z,0.29
2022-12-17T11:19:42.905Z,0.38
2022-12-17T11:20:42.864Z,0.17
2022-12-17T11:21:42.869Z,-0.00
2022-12-17T11:22:42.893Z,-0.05
2022-12-17T11:23:42.824Z,-0.21
2022-12-17T11:24:42.845Z,-0.15
2022-12-17T11:25:42.846Z,-0.21
2022-12-17T11:26:42.856Z,-1.07
2022-12-17T11:27:45.834Z,-1.66
2022-12-17T11:28:45.811Z,-1.16
2022-12-17T11:29:42.786Z,-1.10
2022-12-17T11:30:42.726Z,-0.70
2022-12-17T11:31:42.789Z,-0.79
2022-12-17T11:32:42.767Z,-0.82
2022-12-17T11:33:42.794Z,-1.05
2022-12-17T11:34:42.732Z,-1.37
2022-12-17T11:35:42.707Z,-1.17
2022-12-17T11:36:42.612Z,-1.20
2022-12-17T11:37:42.626Z,-1.09
2022-12-17T11:38:42.646Z,-1.34
2022-12-17T11:39:42.596Z,-1.03
2022-12-17T11:40:42.576Z,-0.47
2022-12-17T11:41:42.555Z,-0.27
2022-12-17T11:42:42.536Z,-0.67
2022-12-17T11:43:42.529Z,-1.30
2022-12-17T11:44:42.539Z,-1.17
2022-12-17T11:45:42.524Z,-0.48
2022-12-17T11:46:42.576Z,-1.07
2022-12-17T11:47:45.497Z,-0.82
2022-12-17T11:48:45.475Z,-0.59
2022-12-17T11:49:42.508Z,-0.62
2022-12-17T11:50:42.437Z,-0.24
2022-12-17T11:51:42.438Z,-0.09
2022-12-17T11:52:42.428Z,-0.78
2022-12-17T11:53:42.407Z,-1.38
2022-12-17T11:54:42.431Z,-1.44
2022-12-17T11:55:42.379Z,-2.08
2022-12-17T11:56:42.367Z,-2.32
2022-12-17T11:57:42.359Z,-2.86
2022-12-17T11:58:42.418Z,-3.59
2022-12-17T11:59:42.335Z,-3.64
2022-12-17T12:00:42.376Z,-3.54
2022-12-17T12:01:42.363Z,-2.85
2022-12-17T12:02:42.317Z,-3.01
2022-12-17T12:03:42.419Z,-2.76
2022-12-17T12:04:42.258Z,-2.29
2022-12-17T12:05:42.248Z,-3.19
2022-12-17T12:06:42.269Z,-3.72
2022-12-17T12:07:45.269Z,-3.63
2022-12-17T12:08:45.239Z,-3.44
2022-12-17T12:09:42.198Z,-3.52
2022-12-17T12:10:42.199Z,-3.67
2022-12-17T12:11:42.200Z,-3.10
2022-12-17T12:12:42.164Z,-2.78
2022-12-17T12:13:42.151Z,-3.23
2022-12-17T12:14:42.131Z,-3.78
2022-12-17T12:15:42.120Z,-3.58
2022-12-17T12:16:44.062Z,-3.70
2022-12-17T12:17:42.100Z,-3.69
2022-12-17T12:18:42.085Z,-4.15
2022-12-17T12:19:42.070Z,-4.17
2022-12-17T12:20:42.039Z,-4.10
2022-12-17T12:21:42.020Z,-3.74
2022-12-17T12:22:42.040Z,-3.76
2022-12-17T12:23:42.048Z,-3.95
2022-12-17T12:24:41.992Z,-4.41
2022-12-17T12:25:42.017Z,-4.76
2022-12-17T12:26:41.961Z,-4.62
2022-12-17T12:27:44.975Z,-4.94
2022-12-17T12:28:44.953Z,-4.82
2022-12-17T12:29:41.930Z,-4.90
2022-12-17T12:30:41.910Z,-4.81
2022-12-17T12:31:41.944Z,-4.29
2022-12-17T12:32:41.872Z,-3.62
2022-12-17T12:33:41.900Z,-4.14
2022-12-17T12:34:41.851Z,-4.20
2022-12-17T12:35:41.882Z,-4.16
2022-12-17T12:36:41.823Z,-3.67
2022-12-17T12:37:41.819Z,-3.28
2022-12-17T12:38:46.204Z,-3.80
2022-12-17T12:39:41.791Z,-4.30
2022-12-17T12:40:41.791Z,-4.27
2022-12-17T12:41:41.802Z,-3.46
2022-12-17T12:42:41.743Z,-3.72
2022-12-17T12:43:41.737Z,-3.71
2022-12-17T12:44:44.765Z,-4.03
2022-12-17T12:45:42.763Z,-4.37
2022-12-17T12:46:41.723Z,-4.68
2022-12-17T12:47:44.693Z,-4.82
2022-12-17T12:48:44.683Z,-5.10
2022-12-17T12:49:41.652Z,-5.96
2022-12-17T12:50:41.684Z,-6.52
2022-12-17T12:51:41.635Z,-6.64
2022-12-17T12:52:41.643Z,-6.32
2022-12-17T12:53:41.663Z,-5.02
2022-12-17T12:54:41.593Z,-5.02
2022-12-17T12:55:41.585Z,-4.61
2022-12-17T12:56:41.576Z,-4.21
2022-12-17T12:57:41.553Z,-4.48